KRIC

Richmond International Airport

Richmond, Virginia, USA
METAR KRIC 190654Z 20003KT 10SM CLR M01/M10 A3014 RMK AO2 SLP212 T10111100
Observed Flight Rules
Jan-19 @ 06:54 UTC (37 minutes ago) Visual Flight Rules
Wind Visibility Clouds
200° at 3 knots 10 miles
  • Clear skies
Temperatures Readings
Current -1°C / 30°F
Dewpoint -10°C / 14°F
Humidity 51%
Altimeter 30.14" Hg
Pressure 1021.2 hPa
Elevation 50
METAR KRIC 190654Z 20003KT 10SM CLR M01/M10 A3014 RMK AO2 SLP212 T10111100
Observed Flight Rules
Jan-19 @ 06:54 UTC
(37 minutes ago)
VFR
Wind Visibility
200° at 3 knots 10 miles
Clouds
  • Clear skies
Temperature Dewpoint
-1°C / 30°F -10°C / 14°F
Humidity Altimeter Pressure
51% 30.14" Hg 1021.2 hPa